Airfield :
LOGIN :

Register | Disclaimer

   EN    FR    IT 

 










Legend :    VFR   Marginal VFR   IFR   Intensive IFR   Very Intensive IFR
Visi :
Ceiling :
>= 8 km
>= 3000ft
5 to 8 km
1000 to 3000 ft
1500m to 5 km
500 to 1000 ft
800 to 1500m
200 to 500 ft
< 800m
< 200 ft
Symbols :   Thunderstorms  Fog  Heavy snow  Heavy precipitations  Wind > 20 kt
SIGMETs :     Misc.  Thunderstorms  Icing  Turbulence  Mountain Waves  Volcanic Ashes







- Airport Elevation : 172 ft
- IATA code : LPI


ESSL - Saab

CURRENT METAR :
  • 210750Z 11011KT 1200 R11/1500N R29/1400N SN VV011 M02/M02 Q1018

EXPIRED METARs :
  • 210720Z 12012KT 2100 SN FEW010 OVC020 M01/M01 Q1018
  • 210650Z 12011KT 2800 SN FEW007 SCT012 BKN023 M01/M01 Q1018
  • 210620Z 12010KT 2200 SN VV020 M02/M02 Q1018 R11/490195
  • 210550Z 12010KT 4500 -SN BKN008 M02/M02 Q1018 R11/490195
  • 210520Z 13009KT 9999 -RASN BKN009 M02/M02 Q1018 R11/490195

TAF AMD TAF ESSL
Valid from the 21 at 07:00 until the 21 at 15:00 UTC


210730Z 2107/2115 11010G15KT 6000 -SN BKN006
TEMPO 2107/2115 1000 SN VV025
PROB40 2107/2115 SG
BECMG 2108/2110 11014G22KT RMK MIL
No reported NOTAMs for that airfield.



MET'MAP, your aeronautical weather chart ! - Copyright ORBIFLY December 2007 - Disclaimer

ORBIFLY MET'MAP TEAM :

Programming & Development : Alexandra Zaïnal
Concept & Development : Baudouin d'Aumeries
Co-Development & Prog : Marc-Olivier Méhu
Technical & hardware support : Manuel Goepfert

Contact : metmap@orbifly.com




SOURCES & CREDITS :

   NOAA